sensor_id;sensor_type;location;lat;lon;timestamp;P1;durP1;ratioP1;P2;durP2;ratioP2
20421;SDS011;10370;53.102;18.034;2022-08-03T00:00:42;17.00;;;8.57;;
20421;SDS011;10370;53.102;18.034;2022-08-03T00:06:03;14.05;;;8.50;;
20421;SDS011;10370;53.102;18.034;2022-08-03T00:11:24;15.57;;;8.45;;
20421;SDS011;10370;53.102;18.034;2022-08-03T00:16:47;16.25;;;7.35;;
20421;SDS011;10370;53.102;18.034;2022-08-03T00:22:08;19.70;;;7.97;;
20421;SDS011;10370;53.102;18.034;2022-08-03T00:27:30;15.38;;;7.85;;
20421;SDS011;10370;53.102;18.034;2022-08-03T00:32:53;13.63;;;7.32;;
20421;SDS011;10370;53.102;18.034;2022-08-03T00:38:15;17.63;;;7.38;;
20421;SDS011;10370;53.102;18.034;2022-08-03T00:43:38;14.77;;;7.68;;
20421;SDS011;10370;53.102;18.034;2022-08-03T00:49:01;15.77;;;7.80;;
20421;SDS011;10370;53.102;18.034;2022-08-03T00:54:22;15.18;;;8.90;;
20421;SDS011;10370;53.102;18.034;2022-08-03T00:59:46;15.27;;;8.95;;
20421;SDS011;10370;53.102;18.034;2022-08-03T01:05:09;15.20;;;8.93;;
20421;SDS011;10370;53.102;18.034;2022-08-03T01:34:22;21.80;;;12.88;;
20421;SDS011;10370;53.102;18.034;2022-08-03T01:39:48;14.57;;;8.57;;
20421;SDS011;10370;53.102;18.034;2022-08-03T01:45:15;16.35;;;8.85;;
20421;SDS011;10370;53.102;18.034;2022-08-03T01:50:38;24.25;;;12.00;;
20421;SDS011;10370;53.102;18.034;2022-08-03T01:55:59;16.63;;;9.20;;
20421;SDS011;10370;53.102;18.034;2022-08-03T02:01:26;22.88;;;9.25;;
20421;SDS011;10370;53.102;18.034;2022-08-03T02:07:09;14.05;;;8.85;;
20421;SDS011;10370;53.102;18.034;2022-08-03T02:12:33;15.73;;;8.25;;
20421;SDS011;10370;53.102;18.034;2022-08-03T02:17:56;15.80;;;8.45;;
20421;SDS011;10370;53.102;18.034;2022-08-03T02:23:19;16.70;;;8.52;;
20421;SDS011;10370;53.102;18.034;2022-08-03T02:28:46;14.77;;;8.77;;
20421;SDS011;10370;53.102;18.034;2022-08-03T02:34:12;14.48;;;7.70;;
20421;SDS011;10370;53.102;18.034;2022-08-03T02:39:35;17.35;;;8.65;;
20421;SDS011;10370;53.102;18.034;2022-08-03T02:45:00;14.55;;;8.73;;
20421;SDS011;10370;53.102;18.034;2022-08-03T02:50:26;17.58;;;8.38;;
20421;SDS011;10370;53.102;18.034;2022-08-03T02:55:50;13.93;;;8.10;;
20421;SDS011;10370;53.102;18.034;2022-08-03T03:01:15;16.13;;;8.48;;
20421;SDS011;10370;53.102;18.034;2022-08-03T03:06:43;15.57;;;7.57;;
20421;SDS011;10370;53.102;18.034;2022-08-03T03:13:08;15.10;;;7.50;;
20421;SDS011;10370;53.102;18.034;2022-08-03T03:18:53;17.08;;;7.95;;
20421;SDS011;10370;53.102;18.034;2022-08-03T03:24:15;18.08;;;7.97;;
20421;SDS011;10370;53.102;18.034;2022-08-03T03:29:37;14.88;;;8.43;;
20421;SDS011;10370;53.102;18.034;2022-08-03T03:35:02;16.02;;;8.30;;
20421;SDS011;10370;53.102;18.034;2022-08-03T03:40:26;17.33;;;7.80;;
20421;SDS011;10370;53.102;18.034;2022-08-03T03:45:47;12.70;;;8.30;;
20421;SDS011;10370;53.102;18.034;2022-08-03T03:51:09;13.45;;;8.48;;
20421;SDS011;10370;53.102;18.034;2022-08-03T03:56:30;12.95;;;8.43;;
20421;SDS011;10370;53.102;18.034;2022-08-03T04:01:51;14.27;;;8.38;;
20421;SDS011;10370;53.102;18.034;2022-08-03T04:07:17;15.57;;;9.50;;
20421;SDS011;10370;53.102;18.034;2022-08-03T04:12:59;19.73;;;8.70;;
20421;SDS011;10370;53.102;18.034;2022-08-03T04:18:22;21.65;;;8.90;;
20421;SDS011;10370;53.102;18.034;2022-08-03T04:23:45;28.90;;;9.82;;
20421;SDS011;10370;53.102;18.034;2022-08-03T04:29:09;22.38;;;11.25;;
20421;SDS011;10370;53.102;18.034;2022-08-03T04:34:31;35.22;;;15.25;;
20421;SDS011;10370;53.102;18.034;2022-08-03T04:39:52;43.60;;;19.60;;
20421;SDS011;10370;53.102;18.034;2022-08-03T04:45:17;33.60;;;14.43;;
20421;SDS011;10370;53.102;18.034;2022-08-03T04:50:40;28.20;;;12.45;;
20421;SDS011;10370;53.102;18.034;2022-08-03T04:56:03;34.97;;;14.45;;
20421;SDS011;10370;53.102;18.034;2022-08-03T05:01:25;18.00;;;10.18;;
20421;SDS011;10370;53.102;18.034;2022-08-03T05:06:46;22.65;;;9.85;;
20421;SDS011;10370;53.102;18.034;2022-08-03T05:12:23;19.85;;;9.30;;
20421;SDS011;10370;53.102;18.034;2022-08-03T05:17:47;15.68;;;9.00;;
20421;SDS011;10370;53.102;18.034;2022-08-03T05:28:42;12.25;;;6.85;;
20421;SDS011;10370;53.102;18.034;2022-08-03T05:34:10;11.75;;;7.03;;
20421;SDS011;10370;53.102;18.034;2022-08-03T05:39:41;15.70;;;6.95;;
20421;SDS011;10370;53.102;18.034;2022-08-03T05:45:12;18.08;;;7.93;;
20421;SDS011;10370;53.102;18.034;2022-08-03T05:51:32;14.50;;;7.20;;
20421;SDS011;10370;53.102;18.034;2022-08-03T05:57:19;15.38;;;6.93;;
20421;SDS011;10370;53.102;18.034;2022-08-03T06:02:40;12.13;;;7.43;;
20421;SDS011;10370;53.102;18.034;2022-08-03T06:08:07;22.90;;;7.15;;
20421;SDS011;10370;53.102;18.034;2022-08-03T06:13:29;15.52;;;7.32;;
20421;SDS011;10370;53.102;18.034;2022-08-03T06:19:00;13.38;;;7.30;;
20421;SDS011;10370;53.102;18.034;2022-08-03T06:24:29;16.23;;;6.90;;
20421;SDS011;10370;53.102;18.034;2022-08-03T06:35:51;13.65;;;7.38;;
20421;SDS011;10370;53.102;18.034;2022-08-03T06:53:33;15.40;;;6.90;;
20421;SDS011;10370;53.102;18.034;2022-08-03T06:58:55;12.45;;;6.95;;
20421;SDS011;10370;53.102;18.034;2022-08-03T07:04:17;14.38;;;6.88;;
20421;SDS011;10370;53.102;18.034;2022-08-03T07:09:41;12.80;;;6.90;;
20421;SDS011;10370;53.102;18.034;2022-08-03T07:15:14;15.43;;;7.13;;
20421;SDS011;10370;53.102;18.034;2022-08-03T07:31:24;14.05;;;6.80;;
20421;SDS011;10370;53.102;18.034;2022-08-03T07:36:53;30.95;;;14.48;;
20421;SDS011;10370;53.102;18.034;2022-08-03T07:42:15;18.35;;;9.80;;
20421;SDS011;10370;53.102;18.034;2022-08-03T07:47:50;16.13;;;8.77;;
20421;SDS011;10370;53.102;18.034;2022-08-03T07:53:12;10.50;;;7.13;;
20421;SDS011;10370;53.102;18.034;2022-08-03T07:58:34;8.48;;;5.88;;
20421;SDS011;10370;53.102;18.034;2022-08-03T08:03:56;10.73;;;6.22;;
20421;SDS011;10370;53.102;18.034;2022-08-03T08:09:18;6.82;;;4.50;;
20421;SDS011;10370;53.102;18.034;2022-08-03T08:14:39;7.55;;;4.75;;
20421;SDS011;10370;53.102;18.034;2022-08-03T08:20:02;8.77;;;4.50;;
20421;SDS011;10370;53.102;18.034;2022-08-03T08:25:25;9.73;;;4.70;;
20421;SDS011;10370;53.102;18.034;2022-08-03T08:30:47;10.88;;;4.63;;
20421;SDS011;10370;53.102;18.034;2022-08-03T08:36:14;10.27;;;4.72;;
20421;SDS011;10370;53.102;18.034;2022-08-03T08:41:37;11.07;;;5.13;;
20421;SDS011;10370;53.102;18.034;2022-08-03T08:46:58;8.80;;;4.90;;
20421;SDS011;10370;53.102;18.034;2022-08-03T08:52:24;9.60;;;4.72;;
20421;SDS011;10370;53.102;18.034;2022-08-03T08:58:07;12.38;;;4.95;;
20421;SDS011;10370;53.102;18.034;2022-08-03T09:03:32;7.43;;;5.00;;
20421;SDS011;10370;53.102;18.034;2022-08-03T09:08:54;8.13;;;5.00;;
20421;SDS011;10370;53.102;18.034;2022-08-03T09:14:14;9.82;;;5.45;;
20421;SDS011;10370;53.102;18.034;2022-08-03T09:20:03;8.70;;;4.30;;
20421;SDS011;10370;53.102;18.034;2022-08-03T09:25:28;7.15;;;4.95;;
20421;SDS011;10370;53.102;18.034;2022-08-03T09:30:57;9.07;;;4.38;;
20421;SDS011;10370;53.102;18.034;2022-08-03T09:36:39;7.82;;;4.47;;
20421;SDS011;10370;53.102;18.034;2022-08-03T09:42:10;8.05;;;4.00;;
20421;SDS011;10370;53.102;18.034;2022-08-03T09:47:44;7.38;;;4.50;;
20421;SDS011;10370;53.102;18.034;2022-08-03T09:53:19;4.57;;;3.60;;
20421;SDS011;10370;53.102;18.034;2022-08-03T09:58:45;5.40;;;3.55;;
20421;SDS011;10370;53.102;18.034;2022-08-03T10:04:13;5.72;;;3.60;;
20421;SDS011;10370;53.102;18.034;2022-08-03T10:09:52;7.18;;;3.60;;
20421;SDS011;10370;53.102;18.034;2022-08-03T10:21:41;5.68;;;3.28;;
20421;SDS011;10370;53.102;18.034;2022-08-03T10:27:21;8.07;;;3.67;;
20421;SDS011;10370;53.102;18.034;2022-08-03T10:32:46;5.10;;;3.22;;
20421;SDS011;10370;53.102;18.034;2022-08-03T10:44:31;8.95;;;3.65;;
20421;SDS011;10370;53.102;18.034;2022-08-03T10:49:56;4.45;;;3.53;;
20421;SDS011;10370;53.102;18.034;2022-08-03T10:55:39;6.15;;;3.58;;
20421;SDS011;10370;53.102;18.034;2022-08-03T11:12:49;5.30;;;3.90;;
20421;SDS011;10370;53.102;18.034;2022-08-03T11:18:11;5.22;;;3.45;;
20421;SDS011;10370;53.102;18.034;2022-08-03T11:23:40;5.22;;;3.78;;
20421;SDS011;10370;53.102;18.034;2022-08-03T11:29:34;4.57;;;4.00;;
20421;SDS011;10370;53.102;18.034;2022-08-03T11:35:15;5.95;;;3.65;;
20421;SDS011;10370;53.102;18.034;2022-08-03T11:46:08;5.13;;;3.33;;
20421;SDS011;10370;53.102;18.034;2022-08-03T11:57:10;6.60;;;3.60;;
20421;SDS011;10370;53.102;18.034;2022-08-03T12:02:32;6.45;;;3.95;;
20421;SDS011;10370;53.102;18.034;2022-08-03T12:07:53;7.80;;;3.55;;
20421;SDS011;10370;53.102;18.034;2022-08-03T12:13:23;3.80;;;3.28;;
20421;SDS011;10370;53.102;18.034;2022-08-03T12:19:16;7.57;;;3.50;;
20421;SDS011;10370;53.102;18.034;2022-08-03T12:24:41;10.82;;;5.30;;
20421;SDS011;10370;53.102;18.034;2022-08-03T12:30:05;4.65;;;3.90;;
20421;SDS011;10370;53.102;18.034;2022-08-03T12:35:27;16.35;;;8.05;;
20421;SDS011;10370;53.102;18.034;2022-08-03T12:40:56;6.95;;;3.63;;
20421;SDS011;10370;53.102;18.034;2022-08-03T12:46:22;4.80;;;3.80;;
20421;SDS011;10370;53.102;18.034;2022-08-03T12:57:11;6.15;;;3.88;;
20421;SDS011;10370;53.102;18.034;2022-08-03T13:02:34;4.97;;;4.20;;
20421;SDS011;10370;53.102;18.034;2022-08-03T13:07:55;6.30;;;3.80;;
20421;SDS011;10370;53.102;18.034;2022-08-03T13:13:17;8.60;;;4.00;;
20421;SDS011;10370;53.102;18.034;2022-08-03T13:18:41;7.85;;;3.60;;
20421;SDS011;10370;53.102;18.034;2022-08-03T13:24:02;7.88;;;3.80;;
20421;SDS011;10370;53.102;18.034;2022-08-03T13:29:24;5.15;;;3.85;;
20421;SDS011;10370;53.102;18.034;2022-08-03T13:34:45;6.90;;;3.60;;
20421;SDS011;10370;53.102;18.034;2022-08-03T13:40:06;6.15;;;3.92;;
20421;SDS011;10370;53.102;18.034;2022-08-03T13:45:30;4.22;;;3.75;;
20421;SDS011;10370;53.102;18.034;2022-08-03T13:50:51;5.60;;;3.80;;
20421;SDS011;10370;53.102;18.034;2022-08-03T13:56:12;4.72;;;4.20;;
20421;SDS011;10370;53.102;18.034;2022-08-03T14:01:33;5.43;;;4.20;;
20421;SDS011;10370;53.102;18.034;2022-08-03T14:07:13;7.47;;;4.20;;
20421;SDS011;10370;53.102;18.034;2022-08-03T14:12:34;4.63;;;4.07;;
20421;SDS011;10370;53.102;18.034;2022-08-03T14:17:55;14.65;;;8.75;;
20421;SDS011;10370;53.102;18.034;2022-08-03T14:23:17;5.18;;;4.65;;
20421;SDS011;10370;53.102;18.034;2022-08-03T14:28:38;7.20;;;5.50;;
20421;SDS011;10370;53.102;18.034;2022-08-03T14:33:59;6.35;;;4.80;;
20421;SDS011;10370;53.102;18.034;2022-08-03T14:39:21;4.65;;;4.25;;
20421;SDS011;10370;53.102;18.034;2022-08-03T14:44:42;7.43;;;4.43;;
20421;SDS011;10370;53.102;18.034;2022-08-03T14:50:03;6.80;;;4.70;;
20421;SDS011;10370;53.102;18.034;2022-08-03T14:55:45;5.25;;;4.30;;
20421;SDS011;10370;53.102;18.034;2022-08-03T15:01:10;5.85;;;4.95;;
20421;SDS011;10370;53.102;18.034;2022-08-03T15:06:51;6.25;;;4.15;;
20421;SDS011;10370;53.102;18.034;2022-08-03T15:12:12;6.10;;;4.53;;
20421;SDS011;10370;53.102;18.034;2022-08-03T15:17:33;5.93;;;4.50;;
20421;SDS011;10370;53.102;18.034;2022-08-03T15:22:55;6.82;;;4.32;;
20421;SDS011;10370;53.102;18.034;2022-08-03T15:28:16;6.13;;;4.50;;
20421;SDS011;10370;53.102;18.034;2022-08-03T15:33:37;9.07;;;4.90;;
20421;SDS011;10370;53.102;18.034;2022-08-03T15:38:59;7.53;;;4.45;;
20421;SDS011;10370;53.102;18.034;2022-08-03T15:44:20;5.70;;;4.57;;
20421;SDS011;10370;53.102;18.034;2022-08-03T15:49:41;6.07;;;4.85;;
20421;SDS011;10370;53.102;18.034;2022-08-03T15:55:02;6.63;;;3.92;;
20421;SDS011;10370;53.102;18.034;2022-08-03T16:00:24;8.80;;;4.53;;
20421;SDS011;10370;53.102;18.034;2022-08-03T16:05:53;10.48;;;4.45;;
20421;SDS011;10370;53.102;18.034;2022-08-03T16:11:14;9.43;;;4.55;;
20421;SDS011;10370;53.102;18.034;2022-08-03T16:16:35;7.25;;;4.82;;
20421;SDS011;10370;53.102;18.034;2022-08-03T16:22:00;8.48;;;6.03;;
20421;SDS011;10370;53.102;18.034;2022-08-03T16:27:21;9.48;;;5.70;;
20421;SDS011;10370;53.102;18.034;2022-08-03T16:32:57;8.77;;;5.00;;
20421;SDS011;10370;53.102;18.034;2022-08-03T16:38:18;7.45;;;4.90;;
20421;SDS011;10370;53.102;18.034;2022-08-03T16:43:39;12.80;;;4.70;;
20421;SDS011;10370;53.102;18.034;2022-08-03T16:49:00;9.10;;;4.60;;
20421;SDS011;10370;53.102;18.034;2022-08-03T16:54:21;7.55;;;4.82;;
20421;SDS011;10370;53.102;18.034;2022-08-03T16:59:42;12.27;;;4.68;;
20421;SDS011;10370;53.102;18.034;2022-08-03T17:05:03;7.65;;;4.47;;
20421;SDS011;10370;53.102;18.034;2022-08-03T17:10:24;10.38;;;5.13;;
20421;SDS011;10370;53.102;18.034;2022-08-03T17:15:46;10.20;;;4.80;;
20421;SDS011;10370;53.102;18.034;2022-08-03T17:21:20;11.30;;;5.13;;
20421;SDS011;10370;53.102;18.034;2022-08-03T17:26:46;12.35;;;4.95;;
20421;SDS011;10370;53.102;18.034;2022-08-03T17:32:10;12.13;;;5.35;;
20421;SDS011;10370;53.102;18.034;2022-08-03T17:37:37;10.63;;;5.22;;
20421;SDS011;10370;53.102;18.034;2022-08-03T17:43:09;9.30;;;4.80;;
20421;SDS011;10370;53.102;18.034;2022-08-03T17:48:53;11.55;;;5.25;;
20421;SDS011;10370;53.102;18.034;2022-08-03T18:00:25;10.40;;;5.20;;
20421;SDS011;10370;53.102;18.034;2022-08-03T18:06:19;11.98;;;5.32;;
20421;SDS011;10370;53.102;18.034;2022-08-03T18:11:48;11.10;;;5.05;;
20421;SDS011;10370;53.102;18.034;2022-08-03T18:17:16;19.52;;;5.50;;
20421;SDS011;10370;53.102;18.034;2022-08-03T18:22:45;13.50;;;5.40;;
20421;SDS011;10370;53.102;18.034;2022-08-03T18:28:08;12.85;;;5.93;;
20421;SDS011;10370;53.102;18.034;2022-08-03T18:33:36;10.15;;;5.40;;
20421;SDS011;10370;53.102;18.034;2022-08-03T18:39:19;14.85;;;6.32;;
20421;SDS011;10370;53.102;18.034;2022-08-03T18:44:40;12.75;;;5.90;;
20421;SDS011;10370;53.102;18.034;2022-08-03T18:50:33;14.25;;;6.38;;
20421;SDS011;10370;53.102;18.034;2022-08-03T18:56:07;12.02;;;6.53;;
20421;SDS011;10370;53.102;18.034;2022-08-03T19:18:03;10.98;;;6.32;;
20421;SDS011;10370;53.102;18.034;2022-08-03T19:23:29;17.40;;;6.60;;
20421;SDS011;10370;53.102;18.034;2022-08-03T19:28:56;12.50;;;6.90;;
20421;SDS011;10370;53.102;18.034;2022-08-03T19:34:17;15.68;;;6.53;;
20421;SDS011;10370;53.102;18.034;2022-08-03T19:39:39;9.63;;;6.90;;
20421;SDS011;10370;53.102;18.034;2022-08-03T19:45:04;11.15;;;7.20;;
20421;SDS011;10370;53.102;18.034;2022-08-03T19:50:30;17.80;;;6.35;;
20421;SDS011;10370;53.102;18.034;2022-08-03T19:55:53;22.40;;;6.50;;
20421;SDS011;10370;53.102;18.034;2022-08-03T20:01:16;12.07;;;7.07;;
20421;SDS011;10370;53.102;18.034;2022-08-03T20:06:39;14.80;;;6.20;;
20421;SDS011;10370;53.102;18.034;2022-08-03T20:12:00;9.15;;;6.28;;
20421;SDS011;10370;53.102;18.034;2022-08-03T20:17:22;20.55;;;7.05;;
20421;SDS011;10370;53.102;18.034;2022-08-03T20:23:25;15.02;;;7.03;;
20421;SDS011;10370;53.102;18.034;2022-08-03T20:28:47;15.98;;;6.60;;
20421;SDS011;10370;53.102;18.034;2022-08-03T20:34:13;17.35;;;7.30;;
20421;SDS011;10370;53.102;18.034;2022-08-03T20:39:36;14.82;;;7.15;;
20421;SDS011;10370;53.102;18.034;2022-08-03T20:44:57;11.63;;;7.15;;
20421;SDS011;10370;53.102;18.034;2022-08-03T20:50:25;12.90;;;6.88;;
20421;SDS011;10370;53.102;18.034;2022-08-03T20:55:47;14.93;;;7.47;;
20421;SDS011;10370;53.102;18.034;2022-08-03T21:01:21;25.92;;;12.40;;
20421;SDS011;10370;53.102;18.034;2022-08-03T21:06:48;19.58;;;8.23;;
20421;SDS011;10370;53.102;18.034;2022-08-03T21:12:18;21.58;;;8.70;;
20421;SDS011;10370;53.102;18.034;2022-08-03T21:17:49;10.68;;;7.97;;
20421;SDS011;10370;53.102;18.034;2022-08-03T21:23:15;12.85;;;7.40;;
20421;SDS011;10370;53.102;18.034;2022-08-03T21:28:54;14.05;;;7.68;;
20421;SDS011;10370;53.102;18.034;2022-08-03T21:34:16;11.65;;;7.32;;
20421;SDS011;10370;53.102;18.034;2022-08-03T21:39:37;10.52;;;7.65;;
20421;SDS011;10370;53.102;18.034;2022-08-03T21:45:12;15.48;;;7.57;;
20421;SDS011;10370;53.102;18.034;2022-08-03T21:50:36;11.85;;;7.63;;
20421;SDS011;10370;53.102;18.034;2022-08-03T22:01:30;14.93;;;8.52;;
20421;SDS011;10370;53.102;18.034;2022-08-03T22:06:54;12.85;;;8.27;;
20421;SDS011;10370;53.102;18.034;2022-08-03T22:12:15;15.15;;;8.20;;
20421;SDS011;10370;53.102;18.034;2022-08-03T22:17:37;15.45;;;8.02;;
20421;SDS011;10370;53.102;18.034;2022-08-03T22:23:14;12.13;;;8.48;;
20421;SDS011;10370;53.102;18.034;2022-08-03T22:28:40;13.75;;;8.00;;
20421;SDS011;10370;53.102;18.034;2022-08-03T22:34:02;12.75;;;7.72;;
20421;SDS011;10370;53.102;18.034;2022-08-03T22:39:24;14.10;;;7.75;;
20421;SDS011;10370;53.102;18.034;2022-08-03T22:44:48;15.77;;;8.07;;
20421;SDS011;10370;53.102;18.034;2022-08-03T22:50:11;15.88;;;8.85;;
20421;SDS011;10370;53.102;18.034;2022-08-03T22:55:51;15.57;;;9.10;;
20421;SDS011;10370;53.102;18.034;2022-08-03T23:01:12;12.63;;;8.75;;
20421;SDS011;10370;53.102;18.034;2022-08-03T23:06:42;11.73;;;8.75;;
20421;SDS011;10370;53.102;18.034;2022-08-03T23:12:06;13.93;;;9.10;;
20421;SDS011;10370;53.102;18.034;2022-08-03T23:17:29;14.38;;;8.68;;
20421;SDS011;10370;53.102;18.034;2022-08-03T23:22:53;11.95;;;8.55;;
20421;SDS011;10370;53.102;18.034;2022-08-03T23:28:14;15.68;;;9.27;;
20421;SDS011;10370;53.102;18.034;2022-08-03T23:33:37;13.38;;;8.73;;
20421;SDS011;10370;53.102;18.034;2022-08-03T23:39:02;13.27;;;8.65;;
20421;SDS011;10370;53.102;18.034;2022-08-03T23:44:24;13.63;;;8.88;;
20421;SDS011;10370;53.102;18.034;2022-08-03T23:49:48;11.95;;;8.75;;
